sensor_id;sensor_type;location;lat;lon;timestamp;P1;durP1;ratioP1;P2;durP2;ratioP2
8540;SDS011;4308;51.294;6.590;2022-07-23T00:00:18;15.97;;;9.97;;
8540;SDS011;4308;51.294;6.590;2022-07-23T00:02:45;14.47;;;8.30;;
8540;SDS011;4308;51.294;6.590;2022-07-23T00:05:13;15.20;;;9.23;;
8540;SDS011;4308;51.294;6.590;2022-07-23T00:07:41;14.37;;;9.13;;
8540;SDS011;4308;51.294;6.590;2022-07-23T00:10:08;14.80;;;9.20;;
8540;SDS011;4308;51.294;6.590;2022-07-23T00:12:36;11.67;;;8.60;;
8540;SDS011;4308;51.294;6.590;2022-07-23T00:15:17;13.53;;;7.80;;
8540;SDS011;4308;51.294;6.590;2022-07-23T00:17:45;14.70;;;8.90;;
8540;SDS011;4308;51.294;6.590;2022-07-23T00:20:13;10.20;;;7.13;;
8540;SDS011;4308;51.294;6.590;2022-07-23T00:25:15;14.07;;;8.97;;
8540;SDS011;4308;51.294;6.590;2022-07-23T00:27:59;10.67;;;7.70;;
8540;SDS011;4308;51.294;6.590;2022-07-23T00:30:26;11.80;;;8.50;;
8540;SDS011;4308;51.294;6.590;2022-07-23T00:32:55;18.50;;;10.03;;
8540;SDS011;4308;51.294;6.590;2022-07-23T00:35:24;15.07;;;8.00;;
8540;SDS011;4308;51.294;6.590;2022-07-23T00:37:52;14.23;;;9.23;;
8540;SDS011;4308;51.294;6.590;2022-07-23T00:40:20;13.87;;;7.80;;
8540;SDS011;4308;51.294;6.590;2022-07-23T00:42:47;11.80;;;8.43;;
8540;SDS011;4308;51.294;6.590;2022-07-23T00:45:15;11.60;;;6.80;;
8540;SDS011;4308;51.294;6.590;2022-07-23T00:47:42;14.70;;;8.47;;
8540;SDS011;4308;51.294;6.590;2022-07-23T00:50:10;16.40;;;7.87;;
8540;SDS011;4308;51.294;6.590;2022-07-23T00:52:38;16.93;;;8.67;;
8540;SDS011;4308;51.294;6.590;2022-07-23T00:55:06;11.10;;;8.93;;
8540;SDS011;4308;51.294;6.590;2022-07-23T00:57:34;13.20;;;8.77;;
8540;SDS011;4308;51.294;6.590;2022-07-23T01:00:03;13.93;;;8.37;;
8540;SDS011;4308;51.294;6.590;2022-07-23T01:02:31;12.63;;;9.40;;
8540;SDS011;4308;51.294;6.590;2022-07-23T01:04:58;12.43;;;8.63;;
8540;SDS011;4308;51.294;6.590;2022-07-23T01:07:26;17.77;;;9.10;;
8540;SDS011;4308;51.294;6.590;2022-07-23T01:09:54;17.43;;;10.23;;
8540;SDS011;4308;51.294;6.590;2022-07-23T01:12:22;15.03;;;8.60;;
8540;SDS011;4308;51.294;6.590;2022-07-23T01:14:56;12.40;;;8.37;;
8540;SDS011;4308;51.294;6.590;2022-07-23T01:17:26;16.00;;;9.27;;
8540;SDS011;4308;51.294;6.590;2022-07-23T01:19:54;15.10;;;10.30;;
8540;SDS011;4308;51.294;6.590;2022-07-23T01:22:22;12.13;;;9.87;;
8540;SDS011;4308;51.294;6.590;2022-07-23T01:24:50;16.00;;;9.83;;
8540;SDS011;4308;51.294;6.590;2022-07-23T01:27:17;11.20;;;8.43;;
8540;SDS011;4308;51.294;6.590;2022-07-23T01:29:45;15.57;;;9.30;;
8540;SDS011;4308;51.294;6.590;2022-07-23T01:32:12;15.10;;;9.07;;
8540;SDS011;4308;51.294;6.590;2022-07-23T01:34:40;14.43;;;8.93;;
8540;SDS011;4308;51.294;6.590;2022-07-23T01:37:07;12.47;;;8.50;;
8540;SDS011;4308;51.294;6.590;2022-07-23T01:39:35;13.07;;;8.27;;
8540;SDS011;4308;51.294;6.590;2022-07-23T01:42:03;12.53;;;8.37;;
8540;SDS011;4308;51.294;6.590;2022-07-23T01:44:30;10.87;;;7.27;;
8540;SDS011;4308;51.294;6.590;2022-07-23T01:46:58;10.57;;;7.53;;
8540;SDS011;4308;51.294;6.590;2022-07-23T01:49:25;12.30;;;8.13;;
8540;SDS011;4308;51.294;6.590;2022-07-23T01:51:53;10.90;;;6.73;;
8540;SDS011;4308;51.294;6.590;2022-07-23T01:54:20;12.67;;;7.70;;
8540;SDS011;4308;51.294;6.590;2022-07-23T01:56:48;11.10;;;6.77;;
8540;SDS011;4308;51.294;6.590;2022-07-23T01:59:15;10.07;;;7.20;;
8540;SDS011;4308;51.294;6.590;2022-07-23T02:01:43;14.93;;;8.07;;
8540;SDS011;4308;51.294;6.590;2022-07-23T02:04:11;12.80;;;7.27;;
8540;SDS011;4308;51.294;6.590;2022-07-23T02:06:38;8.83;;;7.00;;
8540;SDS011;4308;51.294;6.590;2022-07-23T02:09:06;13.70;;;8.37;;
8540;SDS011;4308;51.294;6.590;2022-07-23T02:11:33;12.87;;;7.77;;
8540;SDS011;4308;51.294;6.590;2022-07-23T02:14:01;12.70;;;8.33;;
8540;SDS011;4308;51.294;6.590;2022-07-23T02:16:28;11.10;;;8.13;;
8540;SDS011;4308;51.294;6.590;2022-07-23T02:18:56;12.93;;;8.57;;
8540;SDS011;4308;51.294;6.590;2022-07-23T02:21:24;17.20;;;8.63;;
8540;SDS011;4308;51.294;6.590;2022-07-23T02:23:52;10.50;;;8.23;;
8540;SDS011;4308;51.294;6.590;2022-07-23T02:26:20;9.07;;;6.87;;
8540;SDS011;4308;51.294;6.590;2022-07-23T02:28:47;10.83;;;8.33;;
8540;SDS011;4308;51.294;6.590;2022-07-23T02:31:15;9.97;;;6.63;;
8540;SDS011;4308;51.294;6.590;2022-07-23T02:33:42;12.80;;;8.70;;
8540;SDS011;4308;51.294;6.590;2022-07-23T02:36:10;10.57;;;8.23;;
8540;SDS011;4308;51.294;6.590;2022-07-23T02:38:38;11.50;;;8.03;;
8540;SDS011;4308;51.294;6.590;2022-07-23T02:41:05;11.93;;;8.10;;
8540;SDS011;4308;51.294;6.590;2022-07-23T02:43:33;11.13;;;7.90;;
8540;SDS011;4308;51.294;6.590;2022-07-23T02:46:00;13.03;;;8.43;;
8540;SDS011;4308;51.294;6.590;2022-07-23T02:48:28;15.37;;;9.07;;
8540;SDS011;4308;51.294;6.590;2022-07-23T02:50:56;11.13;;;8.37;;
8540;SDS011;4308;51.294;6.590;2022-07-23T02:53:23;14.80;;;8.37;;
8540;SDS011;4308;51.294;6.590;2022-07-23T02:55:51;14.43;;;9.00;;
8540;SDS011;4308;51.294;6.590;2022-07-23T02:58:19;15.10;;;9.00;;
8540;SDS011;4308;51.294;6.590;2022-07-23T03:00:46;11.67;;;8.07;;
8540;SDS011;4308;51.294;6.590;2022-07-23T03:03:14;13.07;;;9.73;;
8540;SDS011;4308;51.294;6.590;2022-07-23T03:05:42;12.90;;;9.50;;
8540;SDS011;4308;51.294;6.590;2022-07-23T03:08:09;14.40;;;8.83;;
8540;SDS011;4308;51.294;6.590;2022-07-23T03:10:37;14.03;;;8.30;;
8540;SDS011;4308;51.294;6.590;2022-07-23T03:13:04;12.57;;;8.30;;
8540;SDS011;4308;51.294;6.590;2022-07-23T03:15:32;12.13;;;8.60;;
8540;SDS011;4308;51.294;6.590;2022-07-23T03:17:59;12.63;;;8.60;;
8540;SDS011;4308;51.294;6.590;2022-07-23T03:20:27;13.03;;;9.33;;
8540;SDS011;4308;51.294;6.590;2022-07-23T03:22:54;14.33;;;9.00;;
8540;SDS011;4308;51.294;6.590;2022-07-23T03:25:22;11.90;;;8.33;;
8540;SDS011;4308;51.294;6.590;2022-07-23T03:27:49;14.87;;;9.23;;
8540;SDS011;4308;51.294;6.590;2022-07-23T03:30:17;14.60;;;8.90;;
8540;SDS011;4308;51.294;6.590;2022-07-23T03:32:44;13.67;;;9.17;;
8540;SDS011;4308;51.294;6.590;2022-07-23T03:35:12;10.07;;;7.77;;
8540;SDS011;4308;51.294;6.590;2022-07-23T03:37:43;14.03;;;9.57;;
8540;SDS011;4308;51.294;6.590;2022-07-23T03:40:12;11.83;;;8.63;;
8540;SDS011;4308;51.294;6.590;2022-07-23T03:42:40;14.37;;;9.10;;
8540;SDS011;4308;51.294;6.590;2022-07-23T03:45:07;10.83;;;8.97;;
8540;SDS011;4308;51.294;6.590;2022-07-23T03:47:35;14.43;;;10.13;;
8540;SDS011;4308;51.294;6.590;2022-07-23T03:50:03;13.80;;;8.90;;
8540;SDS011;4308;51.294;6.590;2022-07-23T03:52:30;16.50;;;9.70;;
8540;SDS011;4308;51.294;6.590;2022-07-23T03:54:58;12.23;;;8.33;;
8540;SDS011;4308;51.294;6.590;2022-07-23T03:57:25;15.57;;;9.50;;
8540;SDS011;4308;51.294;6.590;2022-07-23T03:59:53;15.73;;;9.97;;
8540;SDS011;4308;51.294;6.590;2022-07-23T04:02:21;15.33;;;9.70;;
8540;SDS011;4308;51.294;6.590;2022-07-23T04:04:48;16.23;;;9.63;;
8540;SDS011;4308;51.294;6.590;2022-07-23T04:07:16;14.17;;;9.13;;
8540;SDS011;4308;51.294;6.590;2022-07-23T04:09:43;12.77;;;9.27;;
8540;SDS011;4308;51.294;6.590;2022-07-23T04:12:12;16.40;;;9.33;;
8540;SDS011;4308;51.294;6.590;2022-07-23T04:14:40;14.53;;;9.00;;
8540;SDS011;4308;51.294;6.590;2022-07-23T04:17:07;10.37;;;8.27;;
8540;SDS011;4308;51.294;6.590;2022-07-23T04:19:35;16.03;;;9.23;;
8540;SDS011;4308;51.294;6.590;2022-07-23T04:22:02;12.10;;;8.63;;
8540;SDS011;4308;51.294;6.590;2022-07-23T04:24:30;12.80;;;8.70;;
8540;SDS011;4308;51.294;6.590;2022-07-23T04:26:57;15.43;;;8.83;;
8540;SDS011;4308;51.294;6.590;2022-07-23T04:29:25;13.97;;;9.07;;
8540;SDS011;4308;51.294;6.590;2022-07-23T04:31:53;9.53;;;7.70;;
8540;SDS011;4308;51.294;6.590;2022-07-23T04:34:20;11.87;;;8.63;;
8540;SDS011;4308;51.294;6.590;2022-07-23T04:36:48;9.97;;;7.57;;
8540;SDS011;4308;51.294;6.590;2022-07-23T04:39:15;15.13;;;7.73;;
8540;SDS011;4308;51.294;6.590;2022-07-23T04:41:43;11.20;;;7.07;;
8540;SDS011;4308;51.294;6.590;2022-07-23T04:44:10;9.73;;;7.00;;
8540;SDS011;4308;51.294;6.590;2022-07-23T04:46:38;7.77;;;6.40;;
8540;SDS011;4308;51.294;6.590;2022-07-23T04:49:06;9.60;;;6.70;;
8540;SDS011;4308;51.294;6.590;2022-07-23T04:51:33;7.47;;;6.10;;
8540;SDS011;4308;51.294;6.590;2022-07-23T04:54:01;9.73;;;5.87;;
8540;SDS011;4308;51.294;6.590;2022-07-23T04:56:28;8.63;;;5.90;;
8540;SDS011;4308;51.294;6.590;2022-07-23T04:58:55;10.67;;;6.13;;
8540;SDS011;4308;51.294;6.590;2022-07-23T05:01:23;7.57;;;5.90;;
8540;SDS011;4308;51.294;6.590;2022-07-23T05:03:50;8.17;;;5.73;;
8540;SDS011;4308;51.294;6.590;2022-07-23T05:06:18;10.63;;;6.17;;
8540;SDS011;4308;51.294;6.590;2022-07-23T05:08:45;10.80;;;6.47;;
8540;SDS011;4308;51.294;6.590;2022-07-23T05:11:13;8.20;;;5.57;;
8540;SDS011;4308;51.294;6.590;2022-07-23T05:13:41;9.17;;;5.50;;
8540;SDS011;4308;51.294;6.590;2022-07-23T05:16:08;7.57;;;5.70;;
8540;SDS011;4308;51.294;6.590;2022-07-23T05:18:36;7.47;;;5.33;;
8540;SDS011;4308;51.294;6.590;2022-07-23T05:21:03;10.13;;;5.60;;
8540;SDS011;4308;51.294;6.590;2022-07-23T05:23:31;7.57;;;5.27;;
8540;SDS011;4308;51.294;6.590;2022-07-23T05:25:59;7.93;;;5.47;;
8540;SDS011;4308;51.294;6.590;2022-07-23T05:28:26;7.17;;;5.30;;
8540;SDS011;4308;51.294;6.590;2022-07-23T05:30:54;7.73;;;5.50;;
8540;SDS011;4308;51.294;6.590;2022-07-23T05:33:21;7.67;;;5.30;;
8540;SDS011;4308;51.294;6.590;2022-07-23T05:35:48;8.03;;;5.03;;
8540;SDS011;4308;51.294;6.590;2022-07-23T05:38:16;7.70;;;5.57;;
8540;SDS011;4308;51.294;6.590;2022-07-23T05:40:43;9.43;;;5.67;;
8540;SDS011;4308;51.294;6.590;2022-07-23T05:43:11;8.67;;;5.83;;
8540;SDS011;4308;51.294;6.590;2022-07-23T05:45:38;7.43;;;5.07;;
8540;SDS011;4308;51.294;6.590;2022-07-23T05:48:05;8.80;;;5.37;;
8540;SDS011;4308;51.294;6.590;2022-07-23T05:50:32;9.00;;;6.80;;
8540;SDS011;4308;51.294;6.590;2022-07-23T05:52:59;7.63;;;5.67;;
8540;SDS011;4308;51.294;6.590;2022-07-23T05:55:27;7.50;;;5.60;;
8540;SDS011;4308;51.294;6.590;2022-07-23T05:57:57;10.77;;;5.50;;
8540;SDS011;4308;51.294;6.590;2022-07-23T06:00:25;9.20;;;5.03;;
8540;SDS011;4308;51.294;6.590;2022-07-23T06:02:53;9.53;;;5.23;;
8540;SDS011;4308;51.294;6.590;2022-07-23T06:05:22;8.67;;;6.13;;
8540;SDS011;4308;51.294;6.590;2022-07-23T06:07:49;7.93;;;6.13;;
8540;SDS011;4308;51.294;6.590;2022-07-23T06:10:17;8.00;;;6.70;;
8540;SDS011;4308;51.294;6.590;2022-07-23T06:12:45;9.73;;;6.33;;
8540;SDS011;4308;51.294;6.590;2022-07-23T06:15:12;8.97;;;6.87;;
8540;SDS011;4308;51.294;6.590;2022-07-23T06:17:40;6.70;;;5.67;;
8540;SDS011;4308;51.294;6.590;2022-07-23T06:20:08;9.27;;;6.50;;
8540;SDS011;4308;51.294;6.590;2022-07-23T06:22:36;11.43;;;6.97;;
8540;SDS011;4308;51.294;6.590;2022-07-23T06:25:04;12.70;;;7.00;;
8540;SDS011;4308;51.294;6.590;2022-07-23T06:27:44;9.83;;;6.93;;
8540;SDS011;4308;51.294;6.590;2022-07-23T06:30:12;8.13;;;6.40;;
8540;SDS011;4308;51.294;6.590;2022-07-23T06:32:43;11.60;;;7.50;;
8540;SDS011;4308;51.294;6.590;2022-07-23T06:35:13;10.87;;;7.77;;
8540;SDS011;4308;51.294;6.590;2022-07-23T06:37:40;23.80;;;7.70;;
8540;SDS011;4308;51.294;6.590;2022-07-23T06:40:08;11.47;;;8.13;;
8540;SDS011;4308;51.294;6.590;2022-07-23T06:42:36;11.23;;;8.07;;
8540;SDS011;4308;51.294;6.590;2022-07-23T06:45:04;12.40;;;7.27;;
8540;SDS011;4308;51.294;6.590;2022-07-23T06:47:31;11.27;;;7.60;;
8540;SDS011;4308;51.294;6.590;2022-07-23T06:49:59;12.40;;;8.17;;
8540;SDS011;4308;51.294;6.590;2022-07-23T06:52:27;11.07;;;8.07;;
8540;SDS011;4308;51.294;6.590;2022-07-23T06:54:54;12.20;;;8.50;;
8540;SDS011;4308;51.294;6.590;2022-07-23T06:57:22;8.60;;;6.70;;
8540;SDS011;4308;51.294;6.590;2022-07-23T06:59:52;15.90;;;9.97;;
8540;SDS011;4308;51.294;6.590;2022-07-23T07:02:21;12.60;;;8.17;;
8540;SDS011;4308;51.294;6.590;2022-07-23T07:04:49;13.93;;;8.93;;
8540;SDS011;4308;51.294;6.590;2022-07-23T07:07:17;16.23;;;10.20;;
8540;SDS011;4308;51.294;6.590;2022-07-23T07:09:44;17.47;;;11.13;;
8540;SDS011;4308;51.294;6.590;2022-07-23T07:12:14;17.00;;;11.33;;
8540;SDS011;4308;51.294;6.590;2022-07-23T07:14:41;17.37;;;11.50;;
8540;SDS011;4308;51.294;6.590;2022-07-23T07:17:09;20.23;;;11.17;;
8540;SDS011;4308;51.294;6.590;2022-07-23T07:19:36;14.30;;;8.77;;
8540;SDS011;4308;51.294;6.590;2022-07-23T07:22:04;13.00;;;9.13;;
8540;SDS011;4308;51.294;6.590;2022-07-23T07:24:31;12.57;;;8.80;;
8540;SDS011;4308;51.294;6.590;2022-07-23T07:27:04;11.93;;;8.23;;
8540;SDS011;4308;51.294;6.590;2022-07-23T07:29:31;13.00;;;8.47;;
8540;SDS011;4308;51.294;6.590;2022-07-23T07:31:59;14.90;;;8.60;;
8540;SDS011;4308;51.294;6.590;2022-07-23T07:34:26;14.70;;;8.37;;
8540;SDS011;4308;51.294;6.590;2022-07-23T07:36:54;21.53;;;9.40;;
8540;SDS011;4308;51.294;6.590;2022-07-23T07:39:22;13.70;;;7.73;;
8540;SDS011;4308;51.294;6.590;2022-07-23T07:41:49;12.27;;;6.73;;
8540;SDS011;4308;51.294;6.590;2022-07-23T07:44:17;14.30;;;7.30;;
8540;SDS011;4308;51.294;6.590;2022-07-23T07:46:45;8.73;;;6.47;;
8540;SDS011;4308;51.294;6.590;2022-07-23T07:49:12;11.10;;;7.03;;
8540;SDS011;4308;51.294;6.590;2022-07-23T07:51:42;18.57;;;6.87;;
8540;SDS011;4308;51.294;6.590;2022-07-23T07:54:11;15.63;;;7.17;;
8540;SDS011;4308;51.294;6.590;2022-07-23T07:56:39;11.37;;;6.47;;
8540;SDS011;4308;51.294;6.590;2022-07-23T07:59:07;7.33;;;5.53;;
8540;SDS011;4308;51.294;6.590;2022-07-23T08:01:36;11.10;;;5.70;;
8540;SDS011;4308;51.294;6.590;2022-07-23T08:04:04;6.17;;;4.50;;
8540;SDS011;4308;51.294;6.590;2022-07-23T08:06:32;11.30;;;6.70;;
8540;SDS011;4308;51.294;6.590;2022-07-23T08:08:59;8.67;;;4.63;;
8540;SDS011;4308;51.294;6.590;2022-07-23T08:11:27;5.03;;;4.13;;
8540;SDS011;4308;51.294;6.590;2022-07-23T08:13:55;8.10;;;6.13;;
8540;SDS011;4308;51.294;6.590;2022-07-23T08:16:22;8.83;;;5.50;;
8540;SDS011;4308;51.294;6.590;2022-07-23T08:18:50;13.37;;;5.50;;
8540;SDS011;4308;51.294;6.590;2022-07-23T08:21:18;7.03;;;4.20;;
8540;SDS011;4308;51.294;6.590;2022-07-23T08:23:45;6.43;;;4.07;;
8540;SDS011;4308;51.294;6.590;2022-07-23T08:26:13;5.83;;;4.00;;
8540;SDS011;4308;51.294;6.590;2022-07-23T08:28:40;6.97;;;4.57;;
8540;SDS011;4308;51.294;6.590;2022-07-23T08:31:08;7.13;;;4.07;;
8540;SDS011;4308;51.294;6.590;2022-07-23T08:33:35;6.10;;;4.20;;
8540;SDS011;4308;51.294;6.590;2022-07-23T08:36:03;6.53;;;3.40;;
8540;SDS011;4308;51.294;6.590;2022-07-23T08:38:32;5.27;;;3.80;;
8540;SDS011;4308;51.294;6.590;2022-07-23T08:40:59;4.00;;;3.60;;
8540;SDS011;4308;51.294;6.590;2022-07-23T08:43:30;6.53;;;4.83;;
8540;SDS011;4308;51.294;6.590;2022-07-23T08:45:58;6.83;;;4.30;;
8540;SDS011;4308;51.294;6.590;2022-07-23T08:48:34;5.40;;;4.03;;
8540;SDS011;4308;51.294;6.590;2022-07-23T08:51:02;8.23;;;4.37;;
8540;SDS011;4308;51.294;6.590;2022-07-23T08:53:31;5.07;;;4.23;;
8540;SDS011;4308;51.294;6.590;2022-07-23T08:56:00;4.80;;;3.47;;
8540;SDS011;4308;51.294;6.590;2022-07-23T08:58:27;3.97;;;3.57;;
8540;SDS011;4308;51.294;6.590;2022-07-23T09:00:55;5.90;;;4.53;;
8540;SDS011;4308;51.294;6.590;2022-07-23T09:03:24;9.53;;;5.00;;
8540;SDS011;4308;51.294;6.590;2022-07-23T09:05:53;7.07;;;5.17;;
8540;SDS011;4308;51.294;6.590;2022-07-23T09:08:22;8.00;;;5.47;;
8540;SDS011;4308;51.294;6.590;2022-07-23T09:10:54;6.07;;;4.77;;
8540;SDS011;4308;51.294;6.590;2022-07-23T09:13:32;13.37;;;4.20;;
8540;SDS011;4308;51.294;6.590;2022-07-23T09:16:10;5.87;;;3.80;;
8540;SDS011;4308;51.294;6.590;2022-07-23T09:21:06;6.07;;;3.73;;
8540;SDS011;4308;51.294;6.590;2022-07-23T09:26:17;4.97;;;3.40;;
8540;SDS011;4308;51.294;6.590;2022-07-23T09:28:52;8.87;;;3.83;;
8540;SDS011;4308;51.294;6.590;2022-07-23T09:31:20;6.20;;;3.63;;
8540;SDS011;4308;51.294;6.590;2022-07-23T09:33:48;8.73;;;3.90;;
8540;SDS011;4308;51.294;6.590;2022-07-23T09:36:15;6.10;;;3.60;;
8540;SDS011;4308;51.294;6.590;2022-07-23T09:38:50;4.87;;;2.80;;
8540;SDS011;4308;51.294;6.590;2022-07-23T09:41:17;11.27;;;3.97;;
8540;SDS011;4308;51.294;6.590;2022-07-23T09:43:45;8.80;;;2.80;;
8540;SDS011;4308;51.294;6.590;2022-07-23T09:46:16;5.13;;;3.03;;
8540;SDS011;4308;51.294;6.590;2022-07-23T09:48:44;4.37;;;3.27;;
8540;SDS011;4308;51.294;6.590;2022-07-23T09:51:12;3.87;;;3.00;;
8540;SDS011;4308;51.294;6.590;2022-07-23T09:53:40;7.40;;;3.53;;
8540;SDS011;4308;51.294;6.590;2022-07-23T09:56:08;6.93;;;2.97;;
8540;SDS011;4308;51.294;6.590;2022-07-23T09:58:39;5.00;;;3.77;;
8540;SDS011;4308;51.294;6.590;2022-07-23T10:01:07;6.43;;;3.30;;
8540;SDS011;4308;51.294;6.590;2022-07-23T10:03:34;4.33;;;3.13;;
8540;SDS011;4308;51.294;6.590;2022-07-23T10:06:02;4.17;;;3.03;;
8540;SDS011;4308;51.294;6.590;2022-07-23T10:08:31;54.47;;;7.67;;
8540;SDS011;4308;51.294;6.590;2022-07-23T10:10:59;7.50;;;3.80;;
8540;SDS011;4308;51.294;6.590;2022-07-23T10:13:28;9.07;;;3.43;;
8540;SDS011;4308;51.294;6.590;2022-07-23T10:15:55;10.73;;;3.63;;
8540;SDS011;4308;51.294;6.590;2022-07-23T10:18:23;13.13;;;3.90;;
8540;SDS011;4308;51.294;6.590;2022-07-23T10:20:50;4.67;;;3.37;;
8540;SDS011;4308;51.294;6.590;2022-07-23T10:23:22;6.40;;;3.20;;
8540;SDS011;4308;51.294;6.590;2022-07-23T10:25:54;4.37;;;2.53;;
8540;SDS011;4308;51.294;6.590;2022-07-23T10:39:17;2.97;;;1.60;;
8540;SDS011;4308;51.294;6.590;2022-07-23T10:41:46;4.67;;;2.17;;
8540;SDS011;4308;51.294;6.590;2022-07-23T10:44:14;5.17;;;2.60;;
8540;SDS011;4308;51.294;6.590;2022-07-23T10:49:26;4.87;;;2.80;;
8540;SDS011;4308;51.294;6.590;2022-07-23T10:52:30;2.93;;;1.93;;
8540;SDS011;4308;51.294;6.590;2022-07-23T10:54:56;8.43;;;2.87;;
8540;SDS011;4308;51.294;6.590;2022-07-23T10:57:48;7.30;;;2.47;;
8540;SDS011;4308;51.294;6.590;2022-07-23T11:00:20;21.70;;;6.03;;
8540;SDS011;4308;51.294;6.590;2022-07-23T11:02:49;6.73;;;3.00;;
8540;SDS011;4308;51.294;6.590;2022-07-23T11:05:18;7.33;;;2.53;;
8540;SDS011;4308;51.294;6.590;2022-07-23T11:10:51;11.20;;;3.53;;
8540;SDS011;4308;51.294;6.590;2022-07-23T11:36:59;2.93;;;2.10;;
8540;SDS011;4308;51.294;6.590;2022-07-23T11:39:29;5.93;;;2.97;;
8540;SDS011;4308;51.294;6.590;2022-07-23T11:41:57;2.33;;;1.97;;
8540;SDS011;4308;51.294;6.590;2022-07-23T11:44:29;4.50;;;2.50;;
8540;SDS011;4308;51.294;6.590;2022-07-23T11:47:00;3.00;;;1.97;;
8540;SDS011;4308;51.294;6.590;2022-07-23T11:49:31;2.87;;;1.93;;
8540;SDS011;4308;51.294;6.590;2022-07-23T11:52:05;3.33;;;1.93;;
8540;SDS011;4308;51.294;6.590;2022-07-23T11:54:34;2.83;;;2.10;;
8540;SDS011;4308;51.294;6.590;2022-07-23T11:57:06;2.77;;;1.77;;
8540;SDS011;4308;51.294;6.590;2022-07-23T11:59:33;2.17;;;1.80;;
8540;SDS011;4308;51.294;6.590;2022-07-23T12:02:04;2.50;;;1.90;;
8540;SDS011;4308;51.294;6.590;2022-07-23T12:04:38;2.03;;;1.70;;
8540;SDS011;4308;51.294;6.590;2022-07-23T12:09:54;1.87;;;1.77;;
8540;SDS011;4308;51.294;6.590;2022-07-23T12:12:22;2.67;;;1.63;;
8540;SDS011;4308;51.294;6.590;2022-07-23T12:14:50;3.30;;;1.73;;
8540;SDS011;4308;51.294;6.590;2022-07-23T12:17:19;2.97;;;1.77;;
8540;SDS011;4308;51.294;6.590;2022-07-23T12:19:47;2.33;;;1.93;;
8540;SDS011;4308;51.294;6.590;2022-07-23T12:22:15;2.73;;;1.90;;
8540;SDS011;4308;51.294;6.590;2022-07-23T12:24:59;2.93;;;1.47;;
8540;SDS011;4308;51.294;6.590;2022-07-23T12:27:27;1.87;;;1.47;;
8540;SDS011;4308;51.294;6.590;2022-07-23T12:29:55;2.03;;;1.83;;
8540;SDS011;4308;51.294;6.590;2022-07-23T12:32:23;2.63;;;1.90;;
8540;SDS011;4308;51.294;6.590;2022-07-23T12:35:04;2.90;;;1.97;;
8540;SDS011;4308;51.294;6.590;2022-07-23T12:37:36;5.17;;;1.93;;
8540;SDS011;4308;51.294;6.590;2022-07-23T12:40:23;2.00;;;1.80;;
8540;SDS011;4308;51.294;6.590;2022-07-23T12:42:51;3.90;;;2.07;;
8540;SDS011;4308;51.294;6.590;2022-07-23T12:45:19;3.10;;;1.83;;
8540;SDS011;4308;51.294;6.590;2022-07-23T12:47:50;2.20;;;1.60;;
8540;SDS011;4308;51.294;6.590;2022-07-23T12:53:04;6.77;;;2.00;;
8540;SDS011;4308;51.294;6.590;2022-07-23T12:55:39;5.43;;;1.77;;
8540;SDS011;4308;51.294;6.590;2022-07-23T12:58:38;2.90;;;1.57;;
8540;SDS011;4308;51.294;6.590;2022-07-23T13:01:09;3.80;;;1.97;;
8540;SDS011;4308;51.294;6.590;2022-07-23T13:03:39;2.23;;;1.70;;
8540;SDS011;4308;51.294;6.590;2022-07-23T13:06:13;3.10;;;1.83;;
8540;SDS011;4308;51.294;6.590;2022-07-23T13:08:40;5.27;;;2.27;;
8540;SDS011;4308;51.294;6.590;2022-07-23T13:11:08;2.20;;;1.70;;
8540;SDS011;4308;51.294;6.590;2022-07-23T13:13:36;4.07;;;2.10;;
8540;SDS011;4308;51.294;6.590;2022-07-23T13:16:04;3.13;;;2.47;;
8540;SDS011;4308;51.294;6.590;2022-07-23T13:18:37;2.97;;;2.03;;
8540;SDS011;4308;51.294;6.590;2022-07-23T13:21:05;3.50;;;2.30;;
8540;SDS011;4308;51.294;6.590;2022-07-23T13:23:32;3.20;;;1.80;;
8540;SDS011;4308;51.294;6.590;2022-07-23T13:26:00;4.33;;;2.07;;
8540;SDS011;4308;51.294;6.590;2022-07-23T13:28:29;3.70;;;2.10;;
8540;SDS011;4308;51.294;6.590;2022-07-23T13:30:56;3.83;;;2.07;;
8540;SDS011;4308;51.294;6.590;2022-07-23T13:33:25;2.57;;;2.03;;
8540;SDS011;4308;51.294;6.590;2022-07-23T13:35:53;5.40;;;2.13;;
8540;SDS011;4308;51.294;6.590;2022-07-23T13:38:22;2.27;;;1.90;;
8540;SDS011;4308;51.294;6.590;2022-07-23T13:40:50;2.93;;;1.67;;
8540;SDS011;4308;51.294;6.590;2022-07-23T13:43:19;3.97;;;2.30;;
8540;SDS011;4308;51.294;6.590;2022-07-23T13:45:49;2.13;;;1.93;;
8540;SDS011;4308;51.294;6.590;2022-07-23T13:48:17;2.13;;;1.93;;
8540;SDS011;4308;51.294;6.590;2022-07-23T13:50:45;3.63;;;1.80;;
8540;SDS011;4308;51.294;6.590;2022-07-23T13:53:14;2.40;;;1.93;;
8540;SDS011;4308;51.294;6.590;2022-07-23T13:55:43;3.47;;;2.07;;
8540;SDS011;4308;51.294;6.590;2022-07-23T13:58:14;2.73;;;2.20;;
8540;SDS011;4308;51.294;6.590;2022-07-23T14:00:43;2.17;;;1.90;;
8540;SDS011;4308;51.294;6.590;2022-07-23T14:03:19;6.40;;;2.20;;
8540;SDS011;4308;51.294;6.590;2022-07-23T14:05:47;4.47;;;2.23;;
8540;SDS011;4308;51.294;6.590;2022-07-23T14:08:15;3.17;;;2.23;;
8540;SDS011;4308;51.294;6.590;2022-07-23T14:10:43;2.77;;;2.10;;
8540;SDS011;4308;51.294;6.590;2022-07-23T14:13:11;5.93;;;2.10;;
8540;SDS011;4308;51.294;6.590;2022-07-23T14:15:38;1.90;;;1.70;;
8540;SDS011;4308;51.294;6.590;2022-07-23T14:18:06;2.97;;;2.30;;
8540;SDS011;4308;51.294;6.590;2022-07-23T14:20:33;4.40;;;2.40;;
8540;SDS011;4308;51.294;6.590;2022-07-23T14:23:01;3.53;;;2.50;;
8540;SDS011;4308;51.294;6.590;2022-07-23T14:25:31;4.90;;;2.00;;
8540;SDS011;4308;51.294;6.590;2022-07-23T14:27:59;3.70;;;2.10;;
8540;SDS011;4308;51.294;6.590;2022-07-23T14:30:27;3.03;;;2.20;;
8540;SDS011;4308;51.294;6.590;2022-07-23T14:33:00;3.40;;;2.43;;
8540;SDS011;4308;51.294;6.590;2022-07-23T14:35:27;11.43;;;3.00;;
8540;SDS011;4308;51.294;6.590;2022-07-23T14:37:55;3.10;;;2.03;;
8540;SDS011;4308;51.294;6.590;2022-07-23T14:40:24;3.47;;;2.20;;
8540;SDS011;4308;51.294;6.590;2022-07-23T14:42:51;3.23;;;1.80;;
8540;SDS011;4308;51.294;6.590;2022-07-23T14:45:19;3.63;;;2.37;;
8540;SDS011;4308;51.294;6.590;2022-07-23T14:47:47;2.80;;;2.17;;
8540;SDS011;4308;51.294;6.590;2022-07-23T14:50:15;4.30;;;1.90;;
8540;SDS011;4308;51.294;6.590;2022-07-23T14:52:43;2.50;;;2.10;;
8540;SDS011;4308;51.294;6.590;2022-07-23T14:55:10;2.40;;;2.00;;
8540;SDS011;4308;51.294;6.590;2022-07-23T14:57:38;4.30;;;2.17;;
8540;SDS011;4308;51.294;6.590;2022-07-23T15:00:05;3.47;;;2.13;;
8540;SDS011;4308;51.294;6.590;2022-07-23T15:02:35;2.67;;;2.43;;
8540;SDS011;4308;51.294;6.590;2022-07-23T15:05:02;2.90;;;1.90;;
8540;SDS011;4308;51.294;6.590;2022-07-23T15:07:33;2.20;;;1.77;;
8540;SDS011;4308;51.294;6.590;2022-07-23T15:10:00;2.87;;;2.00;;
8540;SDS011;4308;51.294;6.590;2022-07-23T15:12:28;4.83;;;2.00;;
8540;SDS011;4308;51.294;6.590;2022-07-23T15:14:56;2.10;;;1.90;;
8540;SDS011;4308;51.294;6.590;2022-07-23T15:17:23;3.20;;;2.10;;
8540;SDS011;4308;51.294;6.590;2022-07-23T15:19:52;3.93;;;2.23;;
8540;SDS011;4308;51.294;6.590;2022-07-23T15:22:20;3.47;;;2.17;;
8540;SDS011;4308;51.294;6.590;2022-07-23T15:24:47;2.77;;;1.87;;
8540;SDS011;4308;51.294;6.590;2022-07-23T15:27:15;3.57;;;2.10;;
8540;SDS011;4308;51.294;6.590;2022-07-23T15:29:43;2.47;;;1.87;;
8540;SDS011;4308;51.294;6.590;2022-07-23T15:32:11;2.20;;;1.83;;
8540;SDS011;4308;51.294;6.590;2022-07-23T15:34:39;2.40;;;2.00;;
8540;SDS011;4308;51.294;6.590;2022-07-23T15:37:07;7.83;;;2.63;;
8540;SDS011;4308;51.294;6.590;2022-07-23T15:39:40;5.13;;;2.20;;
8540;SDS011;4308;51.294;6.590;2022-07-23T15:42:07;2.27;;;2.07;;
8540;SDS011;4308;51.294;6.590;2022-07-23T15:44:40;2.83;;;2.30;;
8540;SDS011;4308;51.294;6.590;2022-07-23T15:47:16;3.77;;;2.40;;
8540;SDS011;4308;51.294;6.590;2022-07-23T15:49:44;3.00;;;2.10;;
8540;SDS011;4308;51.294;6.590;2022-07-23T15:52:12;3.83;;;1.93;;
8540;SDS011;4308;51.294;6.590;2022-07-23T15:54:40;3.83;;;2.53;;
8540;SDS011;4308;51.294;6.590;2022-07-23T15:57:10;3.43;;;2.10;;
8540;SDS011;4308;51.294;6.590;2022-07-23T15:59:39;2.60;;;2.30;;
8540;SDS011;4308;51.294;6.590;2022-07-23T16:02:07;6.67;;;2.80;;
8540;SDS011;4308;51.294;6.590;2022-07-23T16:04:35;3.77;;;2.97;;
8540;SDS011;4308;51.294;6.590;2022-07-23T16:07:02;3.93;;;2.17;;
8540;SDS011;4308;51.294;6.590;2022-07-23T16:09:30;4.40;;;2.60;;
8540;SDS011;4308;51.294;6.590;2022-07-23T16:11:58;3.17;;;2.80;;